• Join FlightAware (Why Join?)
  • Login
  • US Flag 
04:12PM EDT


 

Airport Tracker/Info


-or-


 

Live Flight TrackerFlight Track Log ✈ ASQ5875 ✈ 21-Apr-2013 ✈ KORD - CYUL

Flight Track Log - Related Links

Times and Time Zones

All times are in EDT time to prevent confusion due to time zone crossing. See the ASQ5875 flight status page for this flight to view local times or setup timezone preferences in your user account.

Time Position Orientation Groundspeed Altitude Reporting Facility
EDT Latitude Longitude Course Direction KTS MPH feet Rate Location/Type
12:04PM 41.9833 -87.8667 109° East 173 199 2,400  Level Chicago TRACON
12:05PM 41.9667 -87.8000 109° East 215 247 4,300 1,740 Climbing Chicago TRACON
12:07PM 41.9725 -87.6011 88° East 275 316 8,100 1,980 Climbing Chicago Center
12:08PM 42.0194 -87.5172 53° Northeast 281 323 11,000 2,640 Climbing Chicago Center
12:09PM 42.0814 -87.4100 52° Northeast 304 350 13,600 1,800 Climbing Chicago Center
12:10PM 42.1406 -87.3072 52° Northeast 352 405 14,800 1,380 Climbing Chicago Center
12:11PM 42.2028 -87.1972 53° Northeast 368 423 16,500 1,500 Climbing Chicago Center
12:12PM 42.2664 -87.0847 53° Northeast 378 435 18,000 1,260 Climbing Chicago Center
12:13PM 42.2831 -86.9397 81° East 397 457 19,100 1,200 Climbing Chicago Center
12:14PM 42.2900 -86.7875 86° East 406 467 20,500 1,260 Climbing Chicago Center
12:15PM 42.2958 -86.6381 87° East 416 479 21,800 1,380 Climbing Chicago Center
12:16PM 42.3031 -86.4569 87° East 422 486 23,400 1,380 Climbing Chicago Center
12:17PM 42.3078 -86.2989 88° East 425 489 24,700 1,260 Climbing Chicago Center
12:18PM 42.3139 -86.1400 87° East 425 489 26,100 1,260 Climbing Chicago Center
12:19PM 42.3203 -85.9811 87° East 426 490 27,400 1,440 Climbing Chicago Center
12:20PM 42.3292 -85.7931 86° East 423 487 29,100 1,440 Climbing Chicago Center
12:21PM 42.3358 -85.6350 87° East 424 488 30,400 1,200 Climbing Chicago Center
12:22PM 42.3422 -85.4775 87° East 423 487 31,700 1,260 Climbing Chicago Center
12:24PM 42.3531 -85.2958 85° East 409 471 33,200 1,320 Climbing Cleveland Center
12:25PM 42.3594 -85.1386 87° East 414 476 34,600 900 Climbing Cleveland Center
12:26PM 42.3658 -84.9789 87° East 419 482 35,000 180 Climbing Cleveland Center
12:27PM 42.3722 -84.8078 87° East 432 497 35,000  Level Cleveland Center
12:28PM 42.3767 -84.6278 88° East 467 537 35,000  Level Chicago Center
12:29PM 42.3836 -84.4456 87° East 483 556 35,000  Level Chicago Center
12:30PM 42.3872 -84.2492 89° East 476 548 35,000  Level Cleveland Center
12:31PM 42.3928 -84.0667 88° East 476 548 35,000  Level Cleveland Center
12:32PM 42.3981 -83.8900 88° East 476 548 35,000  Level Cleveland Center
12:33PM 42.4042 -83.7467 87° East 476 548 35,000  Level Cleveland Center
12:34PM 42.4244 -83.5311 83° East 479 551 35,000  Level Cleveland Center
12:35PM 42.4636 -83.3808 70° East 479 551 35,000  Level Cleveland Center
12:36PM 42.5094 -83.2111 70° East 474 545 35,000  Level Cleveland Center
12:37PM 42.5547 -83.0411 70° East 474 545 35,000  Level Cleveland Center
12:38PM 42.6000 -82.8681 70° East 479 551 35,000  Level Cleveland Center
12:39PM 42.6450 -82.6975 70° East 479 551 35,000  Level Cleveland Center
12:40PM 42.6897 -82.5267 70° East 479 551 35,000  Level Cleveland Center
12:41PM 42.7342 -82.3528 71° East 479 551 35,000  Level Cleveland Center
12:42PM 42.7783 -82.1814 71° East 479 551 35,000  Level Cleveland Center
12:43PM 42.8267 -81.9931 71° East 479 551 35,000  Level Cleveland Center
12:44PM 42.9000 -81.6667 73° East 490 564 35,000  Level Toronto Center
12:45PM 42.9333 -81.5000 75° East 490 564 35,000  Level Toronto Center
12:46PM 42.9833 -81.3167 69° East 490 564 35,000  Level Toronto Center
12:47PM 43.0167 -81.1333 76° East 490 564 35,000  Level Toronto Center
12:48PM 43.0833 -80.9833 59° Northeast 490 564 35,000  Level Toronto Center
12:49PM 43.1667 -80.8000 58° Northeast 490 564 35,000  Level Toronto Center
12:50PM 43.2333 -80.6667 56° Northeast 490 564 35,000  Level Toronto Center
12:51PM 43.3000 -80.5000 61° Northeast 490 564 35,000  Level Toronto Center
12:52PM 43.3667 -80.3167 63° Northeast 490 564 35,000  Level Toronto Center
12:53PM 43.4333 -80.1667 58° Northeast 490 564 35,000  Level Toronto Center
12:54PM 43.4833 -80.0000 67° East 490 564 35,000  Level Toronto Center
12:55PM 43.5667 -79.8333 55° Northeast 490 564 35,000  Level Toronto Center
12:56PM 43.6167 -79.6833 65° Northeast 490 564 35,000  Level Toronto Center
12:57PM 43.6667 -79.5000 69° East 490 564 35,000  Level Toronto Center
12:58PM 43.7167 -79.3167 69° East 500 575 35,000  Level Toronto Center
12:59PM 43.7667 -79.1167 71° East 500 575 35,000  Level Toronto Center
01:00PM 43.8167 -78.9333 69° East 500 575 35,000  Level Toronto Center
01:01PM 43.8667 -78.7833 65° Northeast 500 575 35,000  Level Toronto Center
01:02PM 43.9333 -78.6167 61° Northeast 500 575 35,000  Level Toronto Center
01:03PM 43.9667 -78.4333 76° East 500 575 35,000  Level Toronto Center
01:04PM 44.0167 -78.2333 71° East 500 575 35,000  Level Toronto Center
01:05PM 44.0833 -78.0500 63° Northeast 500 575 35,000  Level Toronto Center
01:06PM 44.1333 -77.8833 67° East 500 575 35,000  Level Toronto Center
01:07PM 44.1833 -77.7000 69° East 500 575 35,000  Level Toronto Center
01:08PM 44.2500 -77.5167 63° Northeast 500 575 35,000  Level Toronto Center
01:09PM 44.2833 -77.3500 74° East 500 575 35,000  Level Toronto Center
01:10PM 44.3500 -77.1667 63° Northeast 500 575 35,000  Level Toronto Center
01:11PM 44.3667 -77.1167 65° Northeast 500 575 35,000  Level Montreal Center
01:12PM 44.4167 -76.9333 69° East 500 575 35,000  Level Montreal Center
01:13PM 44.4667 -76.7500 69° East 500 575 35,000  Level Montreal Center
01:13PM 44.5000 -76.6167 71° East 500 575 35,000  Level Toronto Center
01:14PM 44.5500 -76.4500 67° East 500 575 35,000  Level Toronto Center
01:15PM 44.6000 -76.2667 69° East 500 575 35,000  Level Toronto Center
01:16PM 44.6167 -76.2000 71° East 500 575 35,000  Level Montreal Center
01:17PM 44.6833 -76.0167 63° Northeast 500 575 35,000 -180 Level Montreal Center
01:18PM 44.7333 -75.8333 69° East 510 587 34,700 -1,260 Descending Montreal Center
01:19PM 44.7667 -75.6667 74° East 500 575 32,500 -2,400 Descending Montreal Center
01:20PM 44.8167 -75.4667 71° East 470 541 29,900 -2,400 Descending Montreal Center
01:21PM 44.8667 -75.3000 67° East 470 541 27,700 -2,340 Descending Montreal Center
01:22PM 44.9167 -75.1167 69° East 470 541 25,300 -2,400 Descending Montreal Center
01:23PM 44.9500 -74.9500 74° East 470 541 23,000 -2,400 Descending Montreal Center
01:24PM 45.0167 -74.8000 58° Northeast 440 506 20,600 -2,400 Descending Montreal Center
01:25PM 45.0833 -74.6667 55° Northeast 420 483 18,300 -1,920 Descending Montreal Center
01:26PM 45.1500 -74.5500 51° Northeast 400 460 16,800 -1,920 Descending Montreal Center
01:27PM 45.2000 -74.4000 65° Northeast 390 449 14,500 -2,280 Descending Montreal Center
01:28PM 45.2500 -74.2833 59° Northeast 370 426 12,300 -1,800 Descending Montreal Center
01:29PM 45.3000 -74.1667 59° Northeast 350 403 10,900 -1,200 Descending Montreal Center
01:30PM 45.3333 -74.0667 65° Northeast 300 345 10,000 -1,200 Descending Montreal Center
01:31PM 45.4000 -73.9833 41° Northeast 260 299 8,600 -1,380 Descending Montreal Center
01:32PM 45.4500 -73.9167 43° Northeast 250 288 7,300 -1,260 Descending Montreal Center
01:33PM 45.5000 -73.8333 49° Northeast 240 276 6,100 -1,080 Descending Montreal Center
01:34PM 45.5500 -73.7833 35° Northeast 250 288 5,200 -1,140 Descending Montreal Center
01:35PM 45.6000 -73.7167 43° Northeast 230 265 3,900 -1,140 Descending Montreal Center
01:36PM 45.6333 -73.6500 54° Northeast 210 242 3,000 -480 Descending Montreal Center
01:37PM 45.5833 -73.6000 145° Southeast 200 230 3,000 -240 Level Montreal Center
01:38PM 45.5333 -73.6500 215° Southwest 210 242 2,600 -900 Descending Montreal Center
01:39PM 45.5000 -73.6667 199° South 160 184 1,300 -1,200 Descending Montreal Center
01:40PM 45.4833 -73.7167 245° Southwest 140 161 300 -600 Descending Montreal Center
01:41PM 45.4500 -73.7500 215° Southwest 40 46 100 -120 Descending Montreal Center
01:42PM 45.4500 -73.7500 215° Southwest 20 23 100  Level Montreal Center